Kezdőlap
METAR-TAF:

METAR-TAF

Repülőterek :

Fillmore County Airport

Preston, Minnesota, Amerikai Egyesült Államok

földrajzi szélesség: 43-40-36N, földrajzi hosszúság: 092-10-47W, magasság: 389 m

Jelenlegi meteorológiai megfigyelések

A jelentés 11 perccel ezelõtt készült, 01:55 UTC
Dél-délnyugati szél 19 kt széllökések: 25 kt
Hőmérséklet -11°C
Páratartalom 72%
Légköri nyomás 1015 hPa
Látótávolság: 8.0 km
Derült ég
Száraz légköri homály

METAR: KFKA 270155Z AUTO 20019G25KT 5SM HZ CLR M11/M15 A2997 RMK AO2 T11121150

Idő: 20:06 (02:06 UTC)


TAF: hiányzik

Meteorológiai megfigyelések és előrejelzések több, mint 4000 repülőtéren (METAR és TAF jelentéseket).

A térképen piros és sárga pontok jelzik az elérhető meteorológiai állomásokat.

Mozgassa az egeret a pont fölött, hogy megjelenjen az állomás neve.

Azután kattintson az időjárási megfigyelések és előrejelzések megtekintéséhez.

A térkép megváltoztatása: kattintson a fekete keresztel jelölt zöld gombra ráközelítéshez, a vonallal jelölt zöld gombra távolításhoz, vagy a zöld nyilakra a szomszédos térképek eléréséhez.


METAR-TAF: